Bayview, Wisconsin
Current Conditions -  °F | °C
As of 11:52 PM on Tuesday 25 Nov 2014 (Local Time) from KMKE Reporting Station
Overcast Overcast  
Wind Chill: 11°   Ceiling: 1200
Heat Index: 20°   Visibility: 8mi
Dew Point: 15°   Wind: 7mph
Humidity: 81%   Direction: 160°SSE
Pressure: 30.18"   Gusts: NA
Location:  42.9708°N, 87.8754°W
Report Text: KMKE 260552Z 16006KT 8SM OVC012 M07/M09 A3018 RMK AO2 SLP231 4/002 T10671094 11056 21072 410281072 53004
Loading
Personal Weather Stations






























Interactive Weather Map New forecast layout! Learn more

10-Day Weather Forecast

Advertisements
Track Severe Weather on mobile